Terminal Aerodrome Forecast
Issued by NWS

Home | Current Version | Previous Version | Text Only | Print | Product List | Glossary On
Versions: 1 2 3 4 5 6 7 8 9 10 11 12 13 14 15 16
000
FTUS44 KTSA 062337
TAFXNA
TAF
KXNA 062337Z 0700/0724 19010KT P6SM BKN050
     FM071100 19007KT 6SM -SHRA BR OVC025
      TEMPO 0711/0715 3SM -TSRA BKN015CB
     FM071500 22010KT P6SM VCTS BKN015CB
     FM071800 22010KT P6SM BKN025=

USA.gov is the U.S. government's official web portal to all federal, state and local government web resources and services.